createdAt,value
2022-08-04T00:00:01.625Z,29.48
2022-08-04T00:02:37.811Z,27.63
2022-08-04T00:05:06.668Z,26.08
2022-08-04T00:07:45.711Z,24.40
2022-08-04T00:10:16.312Z,24.08
2022-08-04T00:12:47.172Z,22.35
2022-08-04T00:15:16.756Z,29.33
2022-08-04T00:17:54.108Z,25.73
2022-08-04T00:20:21.996Z,21.88
2022-08-04T00:22:52.054Z,18.10
2022-08-04T00:25:19.660Z,25.17
2022-08-04T00:27:47.055Z,25.80
2022-08-04T00:30:14.044Z,24.08
2022-08-04T00:32:41.845Z,24.90
2022-08-04T00:35:15.011Z,28.95
2022-08-04T00:37:45.096Z,23.15
2022-08-04T00:40:39.904Z,19.73
2022-08-04T00:43:23.269Z,26.92
2022-08-04T00:46:16.618Z,26.13
2022-08-04T00:48:56.666Z,21.85
2022-08-04T00:51:42.131Z,25.15
2022-08-04T00:54:33.822Z,26.25
2022-08-04T00:57:33.555Z,25.10
2022-08-04T01:00:13.929Z,25.08
2022-08-04T01:03:05.404Z,23.52
2022-08-04T01:05:37.477Z,25.02
2022-08-04T01:08:16.773Z,28.40
2022-08-04T01:10:43.637Z,19.63
2022-08-04T01:13:33.340Z,26.50
2022-08-04T01:16:02.282Z,32.25
2022-08-04T01:19:17.065Z,31.13
2022-08-04T01:21:47.562Z,31.63
2022-08-04T01:24:23.341Z,28.42
2022-08-04T01:27:09.009Z,20.63
2022-08-04T01:29:49.844Z,28.30
2022-08-04T01:32:26.193Z,24.42
2022-08-04T01:35:21.984Z,29.33
2022-08-04T01:37:55.779Z,20.25
2022-08-04T01:40:23.215Z,24.30
2022-08-04T01:42:53.092Z,31.55
2022-08-04T01:45:20.518Z,25.58
2022-08-04T01:47:55.831Z,28.23
2022-08-04T01:52:54.477Z,21.77
2022-08-04T01:55:21.649Z,26.27
2022-08-04T01:57:53.216Z,25.85
2022-08-04T02:00:29.089Z,27.50
2022-08-04T02:02:56.957Z,29.23
2022-08-04T02:05:26.795Z,22.58
2022-08-04T02:08:37.637Z,25.17
2022-08-04T02:11:20.462Z,22.40
2022-08-04T02:14:12.700Z,21.30
2022-08-04T02:16:52.692Z,28.63
2022-08-04T02:19:51.092Z,28.00
2022-08-04T02:22:22.186Z,27.65
2022-08-04T02:24:58.720Z,23.65
2022-08-04T02:27:59.705Z,25.42
2022-08-04T02:30:22.512Z,30.77
2022-08-04T02:32:55.943Z,28.48
2022-08-04T02:35:29.920Z,26.95
2022-08-04T02:38:25.993Z,25.27
2022-08-04T02:43:51.811Z,20.60
2022-08-04T02:46:18.331Z,25.67
2022-08-04T02:48:48.145Z,23.40
2022-08-04T02:51:17.952Z,22.00
2022-08-04T02:53:46.300Z,30.95
2022-08-04T02:56:19.300Z,27.08
2022-08-04T02:58:51.720Z,25.88
2022-08-04T03:01:18.808Z,22.65
2022-08-04T03:04:11.667Z,25.30
2022-08-04T03:07:29.330Z,30.42
2022-08-04T03:10:21.428Z,28.42
2022-08-04T03:12:51.504Z,25.85
2022-08-04T03:15:40.616Z,27.33
2022-08-04T03:18:37.748Z,26.77
2022-08-04T03:21:34.369Z,24.48
2022-08-04T03:24:16.979Z,29.55
2022-08-04T03:27:24.312Z,26.15
2022-08-04T03:30:18.572Z,27.65
2022-08-04T03:33:18.722Z,26.85
2022-08-04T03:36:28.578Z,25.50
2022-08-04T03:39:13.867Z,20.52
2022-08-04T03:42:20.072Z,28.90
2022-08-04T03:45:23.059Z,27.02
2022-08-04T03:48:11.394Z,28.02
2022-08-04T03:51:35.136Z,29.50
2022-08-04T03:54:21.384Z,26.80
2022-08-04T03:57:10.001Z,22.92
2022-08-04T03:59:55.604Z,25.83
2022-08-04T04:02:59.790Z,33.15
2022-08-04T04:05:29.881Z,23.42
2022-08-04T04:08:29.794Z,22.83
2022-08-04T04:11:34.668Z,25.70
2022-08-04T04:14:20.898Z,24.13
2022-08-04T04:17:09.128Z,22.80
2022-08-04T04:19:50.860Z,26.23
2022-08-04T04:22:28.250Z,25.17
2022-08-04T04:25:32.568Z,26.77
2022-08-04T04:28:45.395Z,20.45
2022-08-04T04:31:37.508Z,20.35
2022-08-04T04:34:46.102Z,26.23
2022-08-04T04:37:52.258Z,18.40
2022-08-04T04:41:04.140Z,18.17
2022-08-04T04:44:02.103Z,16.58
2022-08-04T04:46:48.650Z,24.00
2022-08-04T04:49:33.949Z,21.65
2022-08-04T04:52:12.434Z,25.65
2022-08-04T04:55:16.139Z,20.88
2022-08-04T04:57:54.612Z,21.77
2022-08-04T05:00:26.288Z,18.38
2022-08-04T05:03:11.804Z,25.77
2022-08-04T05:05:47.320Z,24.23
2022-08-04T05:08:44.271Z,19.77
2022-08-04T05:11:18.554Z,19.48
2022-08-04T05:14:36.506Z,23.40
2022-08-04T05:16:47.855Z,20.75
2022-08-04T05:19:41.057Z,19.88
2022-08-04T05:22:14.812Z,23.23
2022-08-04T05:24:46.090Z,19.42
2022-08-04T05:27:30.520Z,21.25
2022-08-04T05:30:04.261Z,23.73
2022-08-04T05:32:59.209Z,18.42
2022-08-04T05:36:18.502Z,16.95
2022-08-04T05:38:39.438Z,21.08
2022-08-04T05:41:09.192Z,18.58
2022-08-04T05:43:38.559Z,18.20
2022-08-04T05:46:05.961Z,18.27
2022-08-04T05:48:34.282Z,24.48
2022-08-04T05:51:03.034Z,21.40
2022-08-04T05:53:31.182Z,17.35
2022-08-04T05:56:01.766Z,19.33
2022-08-04T05:58:32.019Z,21.60
2022-08-04T06:01:02.844Z,14.02
2022-08-04T06:03:31.772Z,21.42
2022-08-04T06:05:59.744Z,19.88
2022-08-04T06:08:27.055Z,16.33
2022-08-04T06:10:57.090Z,24.33
2022-08-04T06:13:48.417Z,13.95
2022-08-04T06:16:28.642Z,16.25
2022-08-04T06:20:03.025Z,18.92
2022-08-04T06:21:48.895Z,10.77
2022-08-04T06:24:20.081Z,20.80
2022-08-04T06:26:49.251Z,17.63
2022-08-04T06:29:28.176Z,14.77
2022-08-04T06:32:30.928Z,11.40
2022-08-04T06:34:46.580Z,14.75
2022-08-04T06:37:24.320Z,17.95
2022-08-04T06:40:02.774Z,13.15
2022-08-04T06:42:44.389Z,15.88
2022-08-04T06:45:13.284Z,13.32
2022-08-04T06:47:42.557Z,12.80
2022-08-04T06:51:24.725Z,11.57
2022-08-04T06:52:57.891Z,12.48
2022-08-04T06:55:25.185Z,15.50
2022-08-04T06:57:54.242Z,14.23
2022-08-04T07:00:23.942Z,10.60
2022-08-04T07:02:53.449Z,12.30
2022-08-04T07:05:21.277Z,12.02
2022-08-04T07:07:57.419Z,14.70
2022-08-04T07:10:29.488Z,12.15
2022-08-04T07:13:00.694Z,13.55
2022-08-04T07:15:28.461Z,13.45
2022-08-04T07:18:01.860Z,14.10
2022-08-04T07:20:35.950Z,10.48
2022-08-04T07:23:05.526Z,9.85
2022-08-04T07:25:58.585Z,12.75
2022-08-04T07:28:22.468Z,17.77
2022-08-04T07:30:50.307Z,14.30
2022-08-04T07:33:18.591Z,14.38
2022-08-04T07:36:04.480Z,9.40
2022-08-04T07:38:37.597Z,10.82
2022-08-04T07:41:35.890Z,11.02
2022-08-04T07:44:03.990Z,7.05
2022-08-04T07:46:31.482Z,13.35
2022-08-04T07:49:00.827Z,12.38
2022-08-04T07:51:28.989Z,9.18
2022-08-04T07:53:57.330Z,10.45
2022-08-04T07:56:25.713Z,10.68
2022-08-04T07:58:52.620Z,11.00
2022-08-04T08:01:20.191Z,8.70
2022-08-04T08:03:48.203Z,9.07
2022-08-04T08:06:17.756Z,11.10
2022-08-04T08:09:13.263Z,12.35
2022-08-04T08:12:35.967Z,8.75
2022-08-04T08:14:33.365Z,10.88
2022-08-04T08:17:02.640Z,8.65
2022-08-04T08:19:31.267Z,11.75
2022-08-04T08:22:00.808Z,9.52
2022-08-04T08:24:35.484Z,7.03
2022-08-04T08:27:04.580Z,7.95
2022-08-04T08:29:33.787Z,11.07
2022-08-04T08:32:07.472Z,8.00
2022-08-04T08:34:35.719Z,5.95
2022-08-04T08:37:09.722Z,4.72
2022-08-04T08:39:42.751Z,8.00
2022-08-04T08:42:21.601Z,5.05
2022-08-04T08:45:11.610Z,7.95
2022-08-04T08:48:05.301Z,5.05
2022-08-04T08:50:55.141Z,6.85
2022-08-04T08:53:32.934Z,9.63
2022-08-04T08:56:17.039Z,6.18
2022-08-04T08:59:15.980Z,5.63
2022-08-04T09:01:57.948Z,7.00
2022-08-04T09:04:43.731Z,10.18
2022-08-04T09:10:33.111Z,4.37
2022-08-04T09:13:10.645Z,3.47
2022-08-04T09:16:16.309Z,6.35
2022-08-04T09:19:17.661Z,6.93
2022-08-04T09:22:07.452Z,5.80
2022-08-04T09:25:02.825Z,4.38
2022-08-04T09:27:51.911Z,6.95
2022-08-04T09:30:21.755Z,8.68
2022-08-04T09:33:10.491Z,10.40
2022-08-04T09:35:48.850Z,10.57
2022-08-04T09:38:41.827Z,4.22
2022-08-04T09:41:49.415Z,7.38
2022-08-04T09:44:52.004Z,5.78
2022-08-04T09:47:49.182Z,10.23
2022-08-04T09:50:34.036Z,5.18
2022-08-04T09:53:28.938Z,5.22
2022-08-04T09:56:09.508Z,6.20
2022-08-04T09:59:11.054Z,7.38
2022-08-04T10:01:43.632Z,4.22
2022-08-04T10:04:14.683Z,4.90
2022-08-04T10:07:17.168Z,6.18
2022-08-04T10:10:24.674Z,6.70
2022-08-04T10:13:28.630Z,4.25
2022-08-04T10:16:20.610Z,3.38
2022-08-04T10:19:20.315Z,4.20
2022-08-04T10:22:29.173Z,5.25
2022-08-04T10:26:02.693Z,5.03
2022-08-04T10:28:05.237Z,6.63
2022-08-04T10:30:35.716Z,9.87
2022-08-04T10:33:23.783Z,9.63
2022-08-04T10:36:31.912Z,4.35
2022-08-04T10:39:12.155Z,3.08
2022-08-04T10:42:11.909Z,3.35
2022-08-04T10:45:08.977Z,4.07
2022-08-04T10:47:45.333Z,8.57
2022-08-04T10:50:24.436Z,8.25
2022-08-04T10:53:18.241Z,3.20
2022-08-04T10:56:06.270Z,7.75
2022-08-04T10:58:47.490Z,4.95
2022-08-04T11:02:01.361Z,11.25
2022-08-04T11:04:27.215Z,5.55
2022-08-04T11:06:56.207Z,9.15
2022-08-04T11:09:23.121Z,8.90
2022-08-04T11:12:26.676Z,8.52
2022-08-04T11:15:01.980Z,4.90
2022-08-04T11:17:36.861Z,8.57
2022-08-04T11:20:37.560Z,2.53
2022-08-04T11:23:11.818Z,3.75
2022-08-04T11:26:03.890Z,6.87
2022-08-04T11:29:08.871Z,9.18
2022-08-04T11:31:49.756Z,8.65
2022-08-04T11:34:23.001Z,6.45
2022-08-04T11:37:18.967Z,7.38
2022-08-04T11:39:51.087Z,6.75
2022-08-04T11:42:27.604Z,4.43
2022-08-04T11:45:18.103Z,2.50
2022-08-04T11:47:54.018Z,3.85
2022-08-04T11:50:26.424Z,9.73
2022-08-04T11:52:55.663Z,4.40
2022-08-04T11:55:25.026Z,4.93
2022-08-04T11:57:54.305Z,3.75
2022-08-04T12:00:25.139Z,4.45
2022-08-04T12:03:25.607Z,2.58
2022-08-04T12:05:58.599Z,1.90
2022-08-04T12:08:51.775Z,2.42
2022-08-04T12:11:26.921Z,5.70
2022-08-04T12:14:24.507Z,3.80
2022-08-04T12:17:01.857Z,5.57
2022-08-04T12:20:03.911Z,4.75
2022-08-04T12:22:48.007Z,5.40
2022-08-04T12:25:21.502Z,5.88
2022-08-04T12:28:01.919Z,5.88
2022-08-04T12:30:58.173Z,3.50
2022-08-04T12:34:03.321Z,2.80
2022-08-04T12:36:37.295Z,3.47
2022-08-04T12:39:13.114Z,3.30
2022-08-04T12:41:45.506Z,3.42
2022-08-04T12:44:36.828Z,4.18
2022-08-04T12:47:26.376Z,2.55
2022-08-04T12:50:00.671Z,3.63
2022-08-04T12:55:34.055Z,3.25
2022-08-04T12:58:11.543Z,3.85
2022-08-04T13:00:41.610Z,5.47
2022-08-04T13:03:16.792Z,2.28
2022-08-04T13:05:46.779Z,6.45
2022-08-04T13:08:15.807Z,2.97
2022-08-04T13:10:46.766Z,2.03
2022-08-04T13:13:19.437Z,3.08
2022-08-04T13:16:05.608Z,4.63
2022-08-04T13:18:41.043Z,3.58
2022-08-04T13:21:16.916Z,3.70
2022-08-04T13:24:22.984Z,3.95
2022-08-04T13:27:06.780Z,3.75
2022-08-04T13:30:00.749Z,3.20
2022-08-04T13:32:32.200Z,2.33
2022-08-04T13:35:01.544Z,4.60
2022-08-04T13:37:37.042Z,4.18
2022-08-04T13:40:11.940Z,5.72
2022-08-04T13:45:08.779Z,6.00
2022-08-04T13:47:39.174Z,6.85
2022-08-04T13:50:30.339Z,5.97
2022-08-04T13:52:59.352Z,3.95
2022-08-04T13:55:30.556Z,9.23
2022-08-04T13:58:23.241Z,4.47
2022-08-04T14:01:00.642Z,8.27
2022-08-04T14:03:54.464Z,6.72
2022-08-04T14:06:26.568Z,19.25
2022-08-04T14:09:02.195Z,25.40
2022-08-04T14:12:06.427Z,51.85
2022-08-04T14:14:28.149Z,26.55
2022-08-04T14:17:20.280Z,15.60
2022-08-04T14:19:50.402Z,12.93
2022-08-04T14:22:26.583Z,27.60
2022-08-04T14:25:15.593Z,14.68
2022-08-04T14:27:55.338Z,9.32
2022-08-04T14:30:37.364Z,11.75
2022-08-04T14:34:01.794Z,9.77
2022-08-04T14:35:59.287Z,8.90
2022-08-04T14:38:53.709Z,6.50
2022-08-04T14:41:28.132Z,4.45
2022-08-04T14:43:57.249Z,10.35
2022-08-04T14:46:36.110Z,10.50
2022-08-04T14:49:12.428Z,4.75
2022-08-04T14:51:45.378Z,9.15
2022-08-04T14:54:18.452Z,6.82
2022-08-04T14:56:54.238Z,5.20
2022-08-04T14:59:21.966Z,4.20
2022-08-04T15:02:01.119Z,10.43
2022-08-04T15:04:31.429Z,6.47
2022-08-04T15:06:59.562Z,5.10
2022-08-04T15:09:26.596Z,5.55
2022-08-04T15:11:53.695Z,4.45
2022-08-04T15:14:36.783Z,3.58
2022-08-04T15:17:12.162Z,5.25
2022-08-04T15:19:56.147Z,4.05
2022-08-04T15:22:23.525Z,5.18
2022-08-04T15:24:54.983Z,3.88
2022-08-04T15:27:27.473Z,4.15
2022-08-04T15:30:00.543Z,6.25
2022-08-04T15:32:38.253Z,3.38
2022-08-04T15:35:10.562Z,5.57
2022-08-04T15:38:01.874Z,8.02
2022-08-04T15:40:33.368Z,3.90
2022-08-04T15:43:30.925Z,6.65
2022-08-04T15:46:41.490Z,5.38
2022-08-04T15:48:47.688Z,5.18
2022-08-04T15:51:28.379Z,6.65
2022-08-04T15:54:02.819Z,6.88
2022-08-04T15:56:30.999Z,3.88
2022-08-04T15:58:58.737Z,3.97
2022-08-04T16:01:27.494Z,4.55
2022-08-04T16:04:00.097Z,5.55
2022-08-04T16:06:37.308Z,4.70
2022-08-04T16:09:05.076Z,9.00
2022-08-04T16:11:40.150Z,2.65
2022-08-04T16:14:10.844Z,6.55
2022-08-04T16:16:41.083Z,2.95
2022-08-04T16:19:10.082Z,5.20
2022-08-04T16:21:51.922Z,5.32
2022-08-04T16:24:21.649Z,6.40
2022-08-04T16:26:54.975Z,4.22
2022-08-04T16:29:23.444Z,5.38
2022-08-04T16:32:05.953Z,5.30
2022-08-04T16:34:47.803Z,4.00
2022-08-04T16:37:19.152Z,3.95
2022-08-04T16:39:49.962Z,3.42
2022-08-04T16:42:30.900Z,4.60
2022-08-04T16:45:06.778Z,5.07
2022-08-04T16:47:49.618Z,5.28
2022-08-04T16:50:21.292Z,5.10
2022-08-04T16:52:48.022Z,4.43
2022-08-04T16:55:23.548Z,6.30
2022-08-04T16:57:52.314Z,10.70
2022-08-04T17:00:31.832Z,10.88
2022-08-04T17:03:01.435Z,9.63
2022-08-04T17:05:39.259Z,4.95
2022-08-04T17:10:55.570Z,8.40
2022-08-04T17:14:02.333Z,5.25
2022-08-04T17:16:23.754Z,8.13
2022-08-04T17:18:52.859Z,12.98
2022-08-04T17:21:24.152Z,8.98
2022-08-04T17:24:14.183Z,7.47
2022-08-04T17:26:41.739Z,9.98
2022-08-04T17:29:12.357Z,8.40
2022-08-04T17:31:46.977Z,9.65
2022-08-04T17:34:19.555Z,8.98
2022-08-04T17:36:48.001Z,9.65
2022-08-04T17:39:20.154Z,10.60
2022-08-04T17:41:55.001Z,9.82
2022-08-04T17:44:34.280Z,10.05
2022-08-04T17:47:18.314Z,11.88
2022-08-04T17:49:53.262Z,9.40
2022-08-04T17:52:45.329Z,7.20
2022-08-04T17:58:21.412Z,9.65
2022-08-04T18:01:10.750Z,8.60
2022-08-04T18:03:44.820Z,10.90
2022-08-04T18:08:58.909Z,10.75
2022-08-04T18:11:28.649Z,14.95
2022-08-04T18:13:57.147Z,9.20
2022-08-04T18:16:24.341Z,13.40
2022-08-04T18:19:14.961Z,10.95
2022-08-04T18:21:45.808Z,10.07
2022-08-04T18:24:34.393Z,11.18
2022-08-04T18:27:14.571Z,10.88
2022-08-04T18:30:14.979Z,10.32
2022-08-04T18:32:31.427Z,10.27
2022-08-04T18:35:05.082Z,9.73
2022-08-04T18:38:05.898Z,17.23
2022-08-04T18:40:29.996Z,11.18
2022-08-04T18:43:02.424Z,10.52
2022-08-04T18:45:34.719Z,14.20
2022-08-04T18:48:04.001Z,9.18
2022-08-04T18:50:40.010Z,8.73
2022-08-04T18:53:17.857Z,12.43
2022-08-04T18:55:56.537Z,11.93
2022-08-04T18:58:28.100Z,13.65
2022-08-04T19:00:56.187Z,9.35
2022-08-04T19:03:30.758Z,8.40
2022-08-04T19:06:01.890Z,12.02
2022-08-04T19:08:34.493Z,10.70
2022-08-04T19:11:16.680Z,13.18
2022-08-04T19:14:01.773Z,12.63
2022-08-04T19:16:30.805Z,11.32
2022-08-04T19:19:00.296Z,14.40
2022-08-04T19:21:58.720Z,11.80
2022-08-04T19:24:31.054Z,11.27
2022-08-04T19:27:07.482Z,10.18
2022-08-04T19:32:24.480Z,9.70
2022-08-04T19:34:53.770Z,12.02
2022-08-04T19:37:57.302Z,9.13
2022-08-04T19:40:10.087Z,10.02
2022-08-04T19:42:37.450Z,12.02
2022-08-04T19:45:05.562Z,10.77
2022-08-04T19:48:16.371Z,12.35
2022-08-04T19:50:19.673Z,7.90
2022-08-04T19:52:52.218Z,8.90
2022-08-04T19:55:37.482Z,8.73
2022-08-04T20:00:35.227Z,8.05
2022-08-04T20:03:11.785Z,15.15
2022-08-04T20:05:55.339Z,8.00
2022-08-04T20:08:26.676Z,8.40
2022-08-04T20:10:58.078Z,11.88
2022-08-04T20:13:37.120Z,7.45
2022-08-04T20:16:28.503Z,10.88
2022-08-04T20:18:59.445Z,9.82
2022-08-04T20:21:54.362Z,6.88
2022-08-04T20:24:37.751Z,6.15
2022-08-04T20:27:14.783Z,9.07
2022-08-04T20:29:48.453Z,9.30
2022-08-04T20:32:19.282Z,8.98
2022-08-04T20:34:47.894Z,7.25
2022-08-04T20:37:15.429Z,9.20
2022-08-04T20:39:42.845Z,8.38
2022-08-04T20:42:11.335Z,15.68
2022-08-04T20:44:46.457Z,10.68
2022-08-04T20:47:14.137Z,9.77
2022-08-04T20:49:41.542Z,9.18
2022-08-04T20:52:16.461Z,8.48
2022-08-04T20:54:48.143Z,12.27
2022-08-04T20:57:17.299Z,8.68
2022-08-04T20:59:59.858Z,13.75
2022-08-04T21:02:27.951Z,9.02
2022-08-04T21:04:55.913Z,8.18
2022-08-04T21:07:24.788Z,7.88
2022-08-04T21:09:52.225Z,11.30
2022-08-04T21:12:27.207Z,13.82
2022-08-04T21:14:57.477Z,12.43
2022-08-04T21:17:59.074Z,12.07
2022-08-04T21:20:13.032Z,11.75
2022-08-04T21:22:40.612Z,9.43
2022-08-04T21:25:15.992Z,10.85
2022-08-04T21:27:44.234Z,12.73
2022-08-04T21:30:26.026Z,10.55
2022-08-04T21:32:55.087Z,11.30
2022-08-04T21:35:36.854Z,9.38
2022-08-04T21:38:17.298Z,14.90
2022-08-04T21:41:01.395Z,12.55
2022-08-04T21:43:29.895Z,15.95
2022-08-04T21:46:09.586Z,11.43
2022-08-04T21:48:39.669Z,16.40
2022-08-04T21:51:56.952Z,18.08
2022-08-04T21:54:08.769Z,12.43
2022-08-04T21:56:35.968Z,13.63
2022-08-04T21:59:11.100Z,16.42
2022-08-04T22:01:51.883Z,16.67
2022-08-04T22:04:21.599Z,13.30
2022-08-04T22:06:51.907Z,15.23
2022-08-04T22:09:21.961Z,14.52
2022-08-04T22:11:50.981Z,20.50
2022-08-04T22:14:29.563Z,17.73
2022-08-04T22:17:02.736Z,15.85
2022-08-04T22:19:50.314Z,13.98
2022-08-04T22:22:26.140Z,16.48
2022-08-04T22:25:01.216Z,11.95
2022-08-04T22:27:47.683Z,15.80
2022-08-04T22:30:23.191Z,18.55
2022-08-04T22:32:50.482Z,19.65
2022-08-04T22:35:36.190Z,15.45
2022-08-04T22:38:20.650Z,22.40
2022-08-04T22:41:07.861Z,23.80
2022-08-04T22:43:36.956Z,17.60
2022-08-04T22:46:07.338Z,21.20
2022-08-04T22:48:36.942Z,16.10
2022-08-04T22:51:06.000Z,18.38
2022-08-04T22:53:35.345Z,20.98
2022-08-04T22:56:09.242Z,21.58
2022-08-04T22:58:45.292Z,18.83
2022-08-04T23:01:17.267Z,22.25
2022-08-04T23:03:55.416Z,25.23
2022-08-04T23:06:28.562Z,20.45
2022-08-04T23:08:56.227Z,23.17
2022-08-04T23:11:24.051Z,21.90
2022-08-04T23:13:50.992Z,25.88
2022-08-04T23:16:19.093Z,24.45
2022-08-04T23:18:48.403Z,22.05
2022-08-04T23:21:16.534Z,25.63
2022-08-04T23:23:55.283Z,29.88
2022-08-04T23:26:27.954Z,26.67
2022-08-04T23:28:55.873Z,24.17
2022-08-04T23:31:22.920Z,26.35
2022-08-04T23:33:51.295Z,23.13
2022-08-04T23:36:29.571Z,22.05
2022-08-04T23:39:04.246Z,20.45
2022-08-04T23:41:50.871Z,24.05
2022-08-04T23:44:24.862Z,22.30
2022-08-04T23:47:00.408Z,24.17
2022-08-04T23:49:43.280Z,26.80
2022-08-04T23:52:27.895Z,28.85
2022-08-04T23:54:59.082Z,24.63
2022-08-04T23:57:30.936Z,22.00
2022-08-04T23:59:58.824Z,23.52
